Time;durP1;ratioP1;P1;durP2;ratioP2;P2;SDS_P1;SDS_P2;PMS_P1;PMS_P2;Temp;Humidity;BMP_temperature;BMP_pressure;BME280_temperature;BME280_humidity;BME280_pressure;Samples;Min_cycle;Max_cycle;Signal;HPM_P1;HPM_P2
2024/04/01 00:00:35;;;;;;;16.03;11.27;;;;;;;;;;5013490;28;20506;-79
2024/04/01 00:03:02;;;;;;;13.90;10.63;;;;;;;;;;5013262;28;20937;-79
2024/04/01 00:05:28;;;;;;;16.93;10.30;;;;;;;;;;5013663;28;20419;-79
2024/04/01 00:07:55;;;;;;;12.40;9.90;;;;;;;;;;5013554;28;20888;-78
2024/04/01 00:10:21;;;;;;;13.90;10.90;;;;;;;;;;5013513;28;20914;-78
2024/04/01 00:12:47;;;;;;;13.73;9.17;;;;;;;;;;5013503;28;20548;-79
2024/04/01 00:15:14;;;;;;;15.10;10.00;;;;;;;;;;5013257;28;20476;-82
2024/04/01 00:17:40;;;;;;;14.50;10.77;;;;;;;;;;5013238;28;20983;-81
2024/04/01 00:20:07;;;;;;;12.63;10.03;;;;;;;;;;5012528;28;20470;-79
2024/04/01 00:22:32;;;;;;;15.57;12.67;;;;;;;;;;5013631;28;20462;-78
2024/04/01 00:24:58;;;;;;;15.17;12.70;;;;;;;;;;5013357;28;20438;-80
2024/04/01 00:27:24;;;;;;;18.30;14.87;;;;;;;;;;5013333;28;20447;-79
2024/04/01 00:29:50;;;;;;;17.37;12.23;;;;;;;;;;5013448;28;20428;-81
2024/04/01 00:32:16;;;;;;;19.00;13.27;;;;;;;;;;5013235;28;20410;-78
2024/04/01 00:34:42;;;;;;;20.57;14.03;;;;;;;;;;5013243;28;20484;-79
2024/04/01 00:37:08;;;;;;;16.87;13.43;;;;;;;;;;5013288;28;20900;-79
2024/04/01 00:39:34;;;;;;;22.23;16.10;;;;;;;;;;5013181;28;20502;-78
2024/04/01 00:42:00;;;;;;;19.30;15.00;;;;;;;;;;5013238;28;20171;-78
2024/04/01 00:44:26;;;;;;;21.77;16.60;;;;;;;;;;5013174;28;20178;-79
2024/04/01 00:46:52;;;;;;;17.80;14.00;;;;;;;;;;5013226;28;20171;-80
2024/04/01 00:49:19;;;;;;;19.10;14.63;;;;;;;;;;5012755;28;20414;-79
2024/04/01 00:51:45;;;;;;;22.40;15.83;;;;;;;;;;5013101;28;20402;-79
2024/04/01 00:54:11;;;;;;;22.30;17.47;;;;;;;;;;5013053;28;20438;-79
2024/04/01 00:56:39;;;;;;;21.27;15.80;;;;;;;;;;5011714;28;20429;-80
2024/04/01 00:59:05;;;;;;;24.50;16.00;;;;;;;;;;5011733;28;20553;-79
2024/04/01 01:01:33;;;;;;;17.60;14.63;;;;;;;;;;5013099;28;20427;-79
2024/04/01 01:04:00;;;;;;;21.97;15.37;;;;;;;;;;5012669;28;20419;-80
2024/04/01 01:06:27;;;;;;;16.80;12.40;;;;;;;;;;5012990;28;20474;-79
2024/04/01 01:08:53;;;;;;;20.30;14.97;;;;;;;;;;5012909;28;20419;-80
2024/04/01 01:11:19;;;;;;;19.60;14.40;;;;;;;;;;5012978;28;20446;-79
2024/04/01 01:13:45;;;;;;;16.93;13.70;;;;;;;;;;5012779;28;20453;-79
2024/04/01 01:16:11;;;;;;;18.90;14.07;;;;;;;;;;5011669;28;20429;-78
2024/04/01 01:18:37;;;;;;;19.77;13.90;;;;;;;;;;5012499;28;20192;-80
2024/04/01 01:21:03;;;;;;;21.97;15.43;;;;;;;;;;5012780;28;20422;-78
2024/04/01 01:23:29;;;;;;;20.73;15.20;;;;;;;;;;5012818;28;20421;-80
2024/04/01 01:25:55;;;;;;;18.30;13.90;;;;;;;;;;5012849;28;20428;-78
2024/04/01 01:28:21;;;;;;;19.87;14.50;;;;;;;;;;5012826;28;20406;-79
2024/04/01 01:30:47;;;;;;;23.50;16.40;;;;;;;;;;5014202;28;20495;-79
2024/04/01 01:33:13;;;;;;;19.43;15.13;;;;;;;;;;5014780;28;20425;-79
2024/04/01 01:35:39;;;;;;;24.40;13.47;;;;;;;;;;5016343;28;20432;-79
2024/04/01 01:38:05;;;;;;;21.10;15.40;;;;;;;;;;5016266;28;20420;-79
2024/04/01 01:40:31;;;;;;;24.57;17.20;;;;;;;;;;5016133;28;20481;-79
2024/04/01 01:42:57;;;;;;;20.40;14.47;;;;;;;;;;5015078;28;20467;-79
2024/04/01 01:45:23;;;;;;;25.70;15.60;;;;;;;;;;5016213;28;20532;-79
2024/04/01 01:47:49;;;;;;;20.53;15.50;;;;;;;;;;5015818;28;20884;-79
2024/04/01 01:50:15;;;;;;;21.70;16.60;;;;;;;;;;5016018;28;20470;-79
2024/04/01 01:52:41;;;;;;;19.33;15.13;;;;;;;;;;5016033;28;20501;-79
2024/04/01 01:55:07;;;;;;;22.00;15.30;;;;;;;;;;5015958;28;20419;-79
2024/04/01 01:57:34;;;;;;;20.60;15.37;;;;;;;;;;5015893;28;20420;-79
2024/04/01 02:00:00;;;;;;;20.13;16.20;;;;;;;;;;5015811;28;20583;-80
2024/04/01 02:02:26;;;;;;;21.20;15.77;;;;;;;;;;5015495;28;20419;-79
2024/04/01 02:04:52;;;;;;;21.27;15.57;;;;;;;;;;5015768;28;20416;-79
2024/04/01 02:07:18;;;;;;;20.77;16.53;;;;;;;;;;5015757;28;20425;-79
2024/04/01 02:09:45;;;;;;;24.60;16.00;;;;;;;;;;5015671;28;20906;-79
2024/04/01 02:12:10;;;;;;;23.20;14.73;;;;;;;;;;5015585;28;20453;-79
2024/04/01 02:14:37;;;;;;;21.87;16.47;;;;;;;;;;5015480;28;20499;-79
2024/04/01 02:17:03;;;;;;;28.27;17.60;;;;;;;;;;5015249;28;20413;-79
2024/04/01 02:19:32;;;;;;;24.23;17.93;;;;;;;;;;5015339;28;20479;-79
2024/04/01 02:21:58;;;;;;;21.43;14.90;;;;;;;;;;5015431;28;20421;-79
2024/04/01 02:24:25;;;;;;;24.93;17.13;;;;;;;;;;5015516;28;20479;-78
2024/04/01 02:26:51;;;;;;;25.23;17.17;;;;;;;;;;5015246;28;20427;-79
2024/04/01 02:29:17;;;;;;;23.33;15.37;;;;;;;;;;5013994;28;20422;-79
2024/04/01 02:31:43;;;;;;;21.03;14.93;;;;;;;;;;5015271;28;20413;-79
2024/04/01 02:34:09;;;;;;;22.70;15.50;;;;;;;;;;5013583;28;20416;-79
2024/04/01 02:36:36;;;;;;;21.97;16.30;;;;;;;;;;5015161;28;20675;-80
2024/04/01 02:39:02;;;;;;;24.23;15.90;;;;;;;;;;5015039;28;20467;-78
2024/04/01 02:41:28;;;;;;;21.57;14.57;;;;;;;;;;5014731;28;20415;-78
2024/04/01 02:43:54;;;;;;;23.50;18.13;;;;;;;;;;5014615;28;20425;-79
2024/04/01 02:46:20;;;;;;;22.60;16.27;;;;;;;;;;5014975;28;20409;-79
2024/04/01 02:48:46;;;;;;;23.97;16.47;;;;;;;;;;5014623;28;20926;-79
2024/04/01 02:51:12;;;;;;;22.97;16.00;;;;;;;;;;5015006;28;20182;-85
2024/04/01 02:53:38;;;;;;;25.80;16.17;;;;;;;;;;5014854;28;20669;-78
2024/04/01 02:56:06;;;;;;;21.00;17.00;;;;;;;;;;5013600;28;20503;-79
2024/04/01 02:58:32;;;;;;;27.80;16.03;;;;;;;;;;5014767;28;20524;-79
2024/04/01 03:01:08;;;;;;;21.10;15.70;;;;;;;;;;5014658;28;20528;-79
2024/04/01 03:03:34;;;;;;;22.40;15.73;;;;;;;;;;5014307;28;20898;-79
2024/04/01 03:06:00;;;;;;;24.80;16.67;;;;;;;;;;5014696;28;20507;-79
2024/04/01 03:08:26;;;;;;;26.33;18.10;;;;;;;;;;5014612;28;20917;-78
2024/04/01 03:10:57;;;;;;;26.97;17.87;;;;;;;;;;5013203;28;20480;-86
2024/04/01 03:13:23;;;;;;;25.50;17.17;;;;;;;;;;5014467;28;20257;-78
2024/04/01 03:15:49;;;;;;;28.90;19.50;;;;;;;;;;5013341;28;20437;-79
2024/04/01 03:18:15;;;;;;;25.53;18.70;;;;;;;;;;5014086;28;20417;-79
2024/04/01 03:20:41;;;;;;;30.43;19.83;;;;;;;;;;5014430;28;20249;-82
2024/04/01 03:23:07;;;;;;;27.03;18.20;;;;;;;;;;5014323;28;20406;-78
2024/04/01 03:25:33;;;;;;;29.83;18.37;;;;;;;;;;5014336;28;20564;-80
2024/04/01 03:27:59;;;;;;;29.37;18.00;;;;;;;;;;5014264;28;20415;-79
2024/04/01 03:30:25;;;;;;;26.17;16.60;;;;;;;;;;5012990;28;20433;-79
2024/04/01 03:32:51;;;;;;;29.43;19.47;;;;;;;;;;5013885;28;20414;-79
2024/04/01 03:35:17;;;;;;;24.37;16.20;;;;;;;;;;5014149;28;20433;-79
2024/04/01 03:37:43;;;;;;;24.53;16.57;;;;;;;;;;5014101;28;20196;-78
2024/04/01 03:40:09;;;;;;;26.23;17.97;;;;;;;;;;5013909;28;20994;-79
2024/04/01 03:42:35;;;;;;;19.60;16.17;;;;;;;;;;5014050;28;20471;-78
2024/04/01 03:45:01;;;;;;;24.93;16.90;;;;;;;;;;5014047;28;20413;-79
2024/04/01 03:47:29;;;;;;;16.90;15.10;;;;;;;;;;5013758;28;20457;-82
2024/04/01 03:49:54;;;;;;;27.50;18.17;;;;;;;;;;5013928;28;20413;-79
2024/04/01 03:52:20;;;;;;;22.77;15.97;;;;;;;;;;5013808;28;20417;-78
2024/04/01 03:54:47;;;;;;;23.47;17.07;;;;;;;;;;5012422;28;20934;-79
2024/04/01 03:57:13;;;;;;;26.93;18.23;;;;;;;;;;5013733;28;20182;-79
2024/04/01 03:59:39;;;;;;;26.53;18.50;;;;;;;;;;5013671;28;20962;-78
2024/04/01 04:02:06;;;;;;;27.17;18.27;;;;;;;;;;5013358;28;20182;-78
2024/04/01 04:04:32;;;;;;;24.20;17.30;;;;;;;;;;5013618;28;20405;-79
2024/04/01 04:06:58;;;;;;;25.00;18.40;;;;;;;;;;5013698;28;20435;-79
2024/04/01 04:09:26;;;;;;;24.53;18.07;;;;;;;;;;5012321;28;20422;-79
2024/04/01 04:11:51;;;;;;;27.23;19.87;;;;;;;;;;5013577;28;20228;-79
2024/04/01 04:14:18;;;;;;;29.27;19.27;;;;;;;;;;5013379;28;20468;-79
2024/04/01 04:16:45;;;;;;;26.73;18.70;;;;;;;;;;5013123;28;20417;-79
2024/04/01 04:19:11;;;;;;;28.87;20.07;;;;;;;;;;5013407;28;20496;-80
2024/04/01 04:21:37;;;;;;;26.77;20.10;;;;;;;;;;5013409;28;20471;-79
2024/04/01 04:24:03;;;;;;;29.70;21.20;;;;;;;;;;5013393;28;20921;-79
2024/04/01 04:26:29;;;;;;;28.70;20.57;;;;;;;;;;5013364;28;20425;-79
2024/04/01 04:28:55;;;;;;;25.90;19.30;;;;;;;;;;5012060;28;20476;-79
2024/04/01 04:31:21;;;;;;;27.60;19.67;;;;;;;;;;5013347;28;20414;-79
2024/04/01 04:33:47;;;;;;;24.43;17.70;;;;;;;;;;5012964;28;20424;-79
2024/04/01 04:36:13;;;;;;;28.30;17.20;;;;;;;;;;5013191;28;20482;-81
2024/04/01 04:38:39;;;;;;;28.27;18.97;;;;;;;;;;5013234;28;20428;-79
2024/04/01 04:41:05;;;;;;;24.13;17.10;;;;;;;;;;5013211;28;20416;-79
2024/04/01 04:43:31;;;;;;;28.23;21.33;;;;;;;;;;5013211;28;20405;-79
2024/04/01 04:45:59;;;;;;;26.37;18.37;;;;;;;;;;5013290;28;20414;-80
2024/04/01 04:48:25;;;;;;;32.40;20.70;;;;;;;;;;5012800;28;20495;-79
2024/04/01 04:50:51;;;;;;;24.23;17.63;;;;;;;;;;5013145;28;20816;-79
2024/04/01 04:53:17;;;;;;;23.07;17.43;;;;;;;;;;5013147;28;20412;-79
2024/04/01 04:55:43;;;;;;;28.27;18.70;;;;;;;;;;5011890;28;20432;-79
2024/04/01 04:58:09;;;;;;;25.17;19.20;;;;;;;;;;5013145;28;20597;-79
2024/04/01 05:00:35;;;;;;;30.67;21.90;;;;;;;;;;5012979;28;20476;-80
2024/04/01 05:03:01;;;;;;;28.37;20.63;;;;;;;;;;5011384;28;20461;-79
2024/04/01 05:05:27;;;;;;;29.27;22.00;;;;;;;;;;5013919;28;20842;-78
2024/04/01 05:07:53;;;;;;;31.70;23.90;;;;;;;;;;5016848;28;20781;-79
2024/04/01 05:10:19;;;;;;;30.53;21.23;;;;;;;;;;5016855;28;20467;-79
2024/04/01 05:12:45;;;;;;;29.83;22.73;;;;;;;;;;5016539;28;20413;-79
2024/04/01 05:15:10;;;;;;;29.67;20.60;;;;;;;;;;5016582;28;20534;-79
2024/04/01 05:17:37;;;;;;;29.77;21.30;;;;;;;;;;5016361;28;20409;-79
2024/04/01 05:20:06;;;;;;;33.40;23.73;;;;;;;;;;5016561;28;20479;-79
2024/04/01 05:22:32;;;;;;;28.30;22.17;;;;;;;;;;5016606;28;20416;-78
2024/04/01 05:24:58;;;;;;;30.47;22.83;;;;;;;;;;5016390;28;20941;-79
2024/04/01 05:27:24;;;;;;;30.10;23.60;;;;;;;;;;5016491;28;20899;-79
2024/04/01 05:30:05;;;;;;;36.53;23.80;;;;;;;;;;5016280;28;20463;-78
2024/04/01 05:32:32;;;;;;;33.73;23.67;;;;;;;;;;5014797;28;20454;-78
2024/04/01 05:34:58;;;;;;;28.33;21.67;;;;;;;;;;5016261;28;20467;-79
2024/04/01 05:37:24;;;;;;;30.90;22.87;;;;;;;;;;5016359;28;20575;-80
2024/04/01 05:39:52;;;;;;;32.57;23.00;;;;;;;;;;5016196;28;20908;-79
2024/04/01 05:42:19;;;;;;;31.77;24.73;;;;;;;;;;5016170;28;20409;-79
2024/04/01 05:44:45;;;;;;;31.90;25.37;;;;;;;;;;5016283;28;20428;-79
2024/04/01 05:47:11;;;;;;;33.50;23.17;;;;;;;;;;5015685;28;20414;-79
2024/04/01 05:49:37;;;;;;;28.13;21.93;;;;;;;;;;5016156;28;20417;-79
2024/04/01 05:52:04;;;;;;;31.00;23.27;;;;;;;;;;5015865;28;20773;-79
2024/04/01 05:54:30;;;;;;;32.63;23.30;;;;;;;;;;5016005;28;20659;-79
2024/04/01 05:56:59;;;;;;;29.53;23.13;;;;;;;;;;5014707;28;20418;-79
2024/04/01 05:59:25;;;;;;;30.50;23.23;;;;;;;;;;5015816;28;20471;-79
2024/04/01 06:01:56;;;;;;;29.30;23.40;;;;;;;;;;5015597;28;20470;-79
2024/04/01 06:04:22;;;;;;;30.07;24.23;;;;;;;;;;5015761;28;20472;-82
2024/04/01 06:06:48;;;;;;;30.87;24.33;;;;;;;;;;5015765;28;20486;-80
2024/04/01 06:09:14;;;;;;;33.07;23.00;;;;;;;;;;5015766;28;20414;-79
2024/04/01 06:11:41;;;;;;;31.43;23.63;;;;;;;;;;5014399;28;20426;-79
2024/04/01 06:14:07;;;;;;;34.80;23.00;;;;;;;;;;5015456;28;20496;-79
2024/04/01 06:16:33;;;;;;;27.30;22.00;;;;;;;;;;5014501;28;20426;-79
2024/04/01 06:18:59;;;;;;;34.40;24.03;;;;;;;;;;5015054;28;20770;-80
2024/04/01 06:21:25;;;;;;;34.30;22.80;;;;;;;;;;5015475;28;20426;-79
2024/04/01 06:23:51;;;;;;;25.97;20.83;;;;;;;;;;5014154;28;20421;-79
2024/04/01 06:26:17;;;;;;;26.80;21.77;;;;;;;;;;5015423;28;20437;-79
2024/04/01 06:28:44;;;;;;;31.03;24.00;;;;;;;;;;5015396;28;20410;-80
2024/04/01 06:31:10;;;;;;;31.37;21.30;;;;;;;;;;5015252;28;20182;-79
2024/04/01 06:33:36;;;;;;;27.00;22.93;;;;;;;;;;5013624;28;20421;-80
2024/04/01 06:36:02;;;;;;;30.67;24.17;;;;;;;;;;5015222;28;20421;-79
2024/04/01 06:38:29;;;;;;;29.10;23.00;;;;;;;;;;5015226;28;20414;-79
2024/04/01 06:40:55;;;;;;;29.53;22.53;;;;;;;;;;5015050;28;20476;-79
2024/04/01 06:43:21;;;;;;;31.60;24.80;;;;;;;;;;5015062;28;20424;-79
2024/04/01 06:45:54;;;;;;;32.33;23.40;;;;;;;;;;5014992;28;20473;-80
2024/04/01 06:48:20;;;;;;;33.73;24.23;;;;;;;;;;5014694;28;20410;-78
2024/04/01 06:50:46;;;;;;;31.70;25.00;;;;;;;;;;5014960;28;20461;-80
2024/04/01 06:53:12;;;;;;;32.23;22.73;;;;;;;;;;5014900;28;20430;-79
2024/04/01 06:55:38;;;;;;;28.80;22.83;;;;;;;;;;5014851;28;20409;-81
2024/04/01 06:58:04;;;;;;;34.40;23.87;;;;;;;;;;5014810;28;20412;-79
2024/04/01 07:00:31;;;;;;;26.27;21.27;;;;;;;;;;5013451;28;20479;-79
2024/04/01 07:02:57;;;;;;;32.20;25.27;;;;;;;;;;5013209;28;20457;-79
2024/04/01 07:05:23;;;;;;;31.37;23.37;;;;;;;;;;5014697;28;20457;-79
2024/04/01 07:07:49;;;;;;;31.77;24.37;;;;;;;;;;5014727;28;20448;-79
2024/04/01 07:10:15;;;;;;;36.60;27.00;;;;;;;;;;5013368;28;20424;-79
2024/04/01 07:12:41;;;;;;;27.97;22.33;;;;;;;;;;5014550;28;20597;-79
2024/04/01 07:15:10;;;;;;;33.50;24.87;;;;;;;;;;5013102;28;20504;-80
2024/04/01 07:17:36;;;;;;;32.30;24.30;;;;;;;;;;5014144;28;20417;-79
2024/04/01 07:20:03;;;;;;;36.20;26.97;;;;;;;;;;5014362;28;20473;-79
2024/04/01 07:22:28;;;;;;;34.87;25.20;;;;;;;;;;5014340;28;20418;-80
2024/04/01 07:24:54;;;;;;;33.80;24.87;;;;;;;;;;5014237;28;20778;-79
2024/04/01 07:27:20;;;;;;;30.23;25.03;;;;;;;;;;5013014;28;20921;-80
2024/04/01 07:29:46;;;;;;;30.13;24.60;;;;;;;;;;5013952;28;20179;-79
2024/04/01 07:32:12;;;;;;;33.10;24.60;;;;;;;;;;5013880;28;20815;-79
2024/04/01 07:34:38;;;;;;;30.83;23.70;;;;;;;;;;5014201;28;20422;-79
2024/04/01 07:37:05;;;;;;;37.07;25.63;;;;;;;;;;5014047;28;20421;-78
2024/04/01 07:39:31;;;;;;;32.57;24.50;;;;;;;;;;5012699;28;20517;-79
2024/04/01 07:41:57;;;;;;;30.03;23.73;;;;;;;;;;5014080;28;20488;-79
2024/04/01 07:44:23;;;;;;;29.47;23.67;;;;;;;;;;5014030;28;20425;-78
2024/04/01 07:46:49;;;;;;;32.70;26.00;;;;;;;;;;5013668;28;20816;-78
2024/04/01 07:49:15;;;;;;;29.80;25.33;;;;;;;;;;5013905;28;20436;-80
2024/04/01 07:51:41;;;;;;;29.40;24.47;;;;;;;;;;5013885;28;20413;-78
2024/04/01 07:54:06;;;;;;;27.90;24.10;;;;;;;;;;5013850;28;20413;-78
2024/04/01 07:56:32;;;;;;;33.23;26.00;;;;;;;;;;5013768;28;20922;-78
2024/04/01 07:58:58;;;;;;;31.00;24.77;;;;;;;;;;5013842;28;20418;-79
2024/04/01 08:01:24;;;;;;;34.70;26.47;;;;;;;;;;5013387;28;20489;-79
2024/04/01 08:03:50;;;;;;;34.87;25.13;;;;;;;;;;5013719;28;20992;-78
2024/04/01 08:06:16;;;;;;;34.10;26.00;;;;;;;;;;5012409;28;20998;-78
2024/04/01 08:08:42;;;;;;;30.83;24.93;;;;;;;;;;5013556;28;20172;-79
2024/04/01 08:11:08;;;;;;;30.10;23.83;;;;;;;;;;5013528;28;20829;-79
2024/04/01 08:13:34;;;;;;;33.90;26.80;;;;;;;;;;5013352;28;20423;-79
2024/04/01 08:16:00;;;;;;;34.87;27.50;;;;;;;;;;5013216;28;20457;-78
2024/04/01 08:18:27;;;;;;;33.90;25.77;;;;;;;;;;5013473;28;20180;-79
2024/04/01 08:20:53;;;;;;;36.67;29.40;;;;;;;;;;5013268;28;20561;-78
2024/04/01 08:23:19;;;;;;;34.23;27.80;;;;;;;;;;5013367;28;20778;-79
2024/04/01 08:25:45;;;;;;;32.70;26.17;;;;;;;;;;5013311;28;20996;-78
2024/04/01 08:28:11;;;;;;;32.30;25.40;;;;;;;;;;5013281;28;20440;-78
2024/04/01 08:30:37;;;;;;;35.00;27.97;;;;;;;;;;5013389;28;20403;-79
2024/04/01 08:33:03;;;;;;;32.90;27.60;;;;;;;;;;5012971;28;20402;-78
2024/04/01 08:35:29;;;;;;;35.90;26.70;;;;;;;;;;5011975;28;20421;-78
2024/04/01 08:37:54;;;;;;;32.07;25.50;;;;;;;;;;5013310;28;20820;-80
2024/04/01 08:40:20;;;;;;;36.13;27.67;;;;;;;;;;5013942;28;20891;-79
2024/04/01 08:42:48;;;;;;;33.23;26.80;;;;;;;;;;5017321;28;20180;-79
2024/04/01 08:45:14;;;;;;;30.93;25.90;;;;;;;;;;5017310;28;20423;-79
2024/04/01 08:47:43;;;;;;;36.40;26.10;;;;;;;;;;5016912;28;20770;-79
2024/04/01 08:50:21;;;;;;;35.67;28.87;;;;;;;;;;5017138;28;20414;-78
2024/04/01 08:52:57;;;;;;;40.87;30.27;;;;;;;;;;5017119;28;20466;-79
2024/04/01 08:55:24;;;;;;;41.97;31.37;;;;;;;;;;5017114;28;20414;-78
2024/04/01 08:57:50;;;;;;;42.40;27.63;;;;;;;;;;5017052;28;20429;-79
2024/04/01 09:00:18;;;;;;;37.20;28.87;;;;;;;;;;5016889;28;20502;-79
2024/04/01 09:02:44;;;;;;;37.57;29.80;;;;;;;;;;5016633;28;20418;-78
2024/04/01 09:05:10;;;;;;;36.73;29.27;;;;;;;;;;5015671;28;20426;-78
2024/04/01 09:07:36;;;;;;;36.73;28.00;;;;;;;;;;5016864;28;20494;-79
2024/04/01 09:10:03;;;;;;;39.90;28.50;;;;;;;;;;5016731;28;20774;-78
2024/04/01 09:12:29;;;;;;;36.73;28.37;;;;;;;;;;5016799;28;20501;-78
2024/04/01 09:14:55;;;;;;;37.73;28.90;;;;;;;;;;5016586;28;20545;-78
2024/04/01 09:17:25;;;;;;;38.90;29.67;;;;;;;;;;5016402;28;20446;-79
2024/04/01 09:19:51;;;;;;;42.00;29.90;;;;;;;;;;5016532;28;20207;-78
2024/04/01 09:22:17;;;;;;;41.40;28.63;;;;;;;;;;5016549;28;20791;-78
2024/04/01 09:24:45;;;;;;;39.30;31.57;;;;;;;;;;5016523;28;20399;-78
2024/04/01 09:27:11;;;;;;;39.17;28.07;;;;;;;;;;5016541;28;20911;-78
2024/04/01 09:29:36;;;;;;;40.63;30.47;;;;;;;;;;5016515;28;20411;-79
2024/04/01 09:32:03;;;;;;;41.33;31.27;;;;;;;;;;5014846;28;20427;-79
2024/04/01 09:34:32;;;;;;;41.63;29.60;;;;;;;;;;5016496;28;20180;-78
2024/04/01 09:36:58;;;;;;;39.33;29.50;;;;;;;;;;5016298;28;20927;-79
2024/04/01 09:39:24;;;;;;;45.03;30.77;;;;;;;;;;5016162;28;20478;-79
2024/04/01 09:41:51;;;;;;;42.67;33.80;;;;;;;;;;5016242;28;20466;-78
2024/04/01 09:44:17;;;;;;;39.03;29.73;;;;;;;;;;5016253;28;20473;-78
2024/04/01 09:46:43;;;;;;;41.67;31.00;;;;;;;;;;5015890;28;20411;-78
2024/04/01 09:49:10;;;;;;;38.67;29.47;;;;;;;;;;5016052;28;20419;-78
2024/04/01 09:51:36;;;;;;;37.13;29.43;;;;;;;;;;5015828;28;20415;-78
2024/04/01 09:54:02;;;;;;;37.43;28.50;;;;;;;;;;5016073;28;20923;-78
2024/04/01 09:56:40;;;;;;;33.67;27.37;;;;;;;;;;5015995;28;20412;-78
2024/04/01 09:59:24;;;;;;;35.90;28.80;;;;;;;;;;5014592;28;20426;-79
2024/04/01 10:01:59;;;;;;;32.23;28.53;;;;;;;;;;5015550;28;20427;-78
2024/04/01 10:04:41;;;;;;;32.60;26.30;;;;;;;;;;5014541;28;20761;-79
2024/04/01 10:07:28;;;;;;;34.63;26.03;;;;;;;;;;5015739;28;20424;-78
2024/04/01 10:10:06;;;;;;;32.30;26.53;;;;;;;;;;5015768;28;20423;-78
2024/04/01 10:12:35;;;;;;;31.23;25.40;;;;;;;;;;5015644;28;21040;-82
2024/04/01 10:15:24;;;;;;;33.17;25.33;;;;;;;;;;5015490;28;20806;-78
2024/04/01 10:17:50;;;;;;;36.27;25.90;;;;;;;;;;5004987;28;20436;-79
2024/04/01 10:20:24;;;;;;;32.83;25.07;;;;;;;;;;5015438;28;20468;-79
2024/04/01 10:22:53;;;;;;;32.40;26.13;;;;;;;;;;5015711;28;20172;-79
2024/04/01 10:25:38;;;;;;;31.43;25.40;;;;;;;;;;5015379;28;20924;-78
2024/04/01 10:28:14;;;;;;;28.43;24.50;;;;;;;;;;5015423;28;20418;-78
2024/04/01 10:30:59;;;;;;;24.37;21.43;;;;;;;;;;5014950;28;20452;-79
2024/04/01 10:33:54;;;;;;;28.73;23.60;;;;;;;;;;5015296;28;20519;-78
2024/04/01 10:36:23;;;;;;;30.47;24.63;;;;;;;;;;5014087;28;20508;-78
2024/04/01 10:38:52;;;;;;;26.43;22.03;;;;;;;;;;5015076;28;20496;-79
2024/04/01 10:41:18;;;;;;;25.90;21.00;;;;;;;;;;5015111;28;20424;-79
2024/04/01 10:43:44;;;;;;;26.13;22.13;;;;;;;;;;5015191;28;20478;-77
2024/04/01 10:46:29;;;;;;;28.40;22.63;;;;;;;;;;5014704;28;20177;-78
2024/04/01 10:49:18;;;;;;;25.27;20.87;;;;;;;;;;5015043;28;20632;-78
2024/04/01 10:52:02;;;;;;;24.80;21.93;;;;;;;;;;5012007;28;20440;-78
2024/04/01 10:54:40;;;;;;;23.63;20.97;;;;;;;;;;5015140;28;20625;-78
2024/04/01 10:57:32;;;;;;;25.30;22.27;;;;;;;;;;5013640;28;20820;-78
2024/04/01 11:00:17;;;;;;;25.60;21.70;;;;;;;;;;5014714;28;20465;-78
2024/04/01 11:02:42;;;;;;;25.83;20.77;;;;;;;;;;5013893;28;20453;-78
2024/04/01 11:05:23;;;;;;;26.37;20.07;;;;;;;;;;5014683;28;20968;-79
2024/04/01 11:08:12;;;;;;;23.77;20.47;;;;;;;;;;5013474;28;20175;-83
2024/04/01 11:10:46;;;;;;;23.80;19.37;;;;;;;;;;5014578;28;20422;-79
2024/04/01 11:13:14;;;;;;;22.27;19.80;;;;;;;;;;5014582;28;20421;-78
2024/04/01 11:15:41;;;;;;;23.70;19.67;;;;;;;;;;5014036;28;20469;-78
2024/04/01 11:18:19;;;;;;;23.73;19.50;;;;;;;;;;5013603;28;20412;-79
2024/04/01 11:21:05;;;;;;;21.57;19.27;;;;;;;;;;5013100;28;20478;-79
2024/04/01 11:23:42;;;;;;;21.97;19.67;;;;;;;;;;5014571;28;20410;-78
2024/04/01 11:26:23;;;;;;;22.47;18.60;;;;;;;;;;5014514;28;20802;-78
2024/04/01 11:29:08;;;;;;;22.40;18.07;;;;;;;;;;5014368;28;20425;-78
2024/04/01 11:31:35;;;;;;;23.00;20.57;;;;;;;;;;5013968;28;20946;-84
2024/04/01 11:34:13;;;;;;;22.43;17.27;;;;;;;;;;5014315;28;20416;-78
2024/04/01 11:36:49;;;;;;;22.87;18.37;;;;;;;;;;5014542;28;20418;-84
2024/04/01 11:39:16;;;;;;;19.80;17.70;;;;;;;;;;5014161;28;20473;-79
2024/04/01 11:41:45;;;;;;;23.57;18.77;;;;;;;;;;5014095;28;20452;-82
2024/04/01 11:44:11;;;;;;;20.90;17.70;;;;;;;;;;5014152;28;20417;-84
2024/04/01 11:46:39;;;;;;;20.73;18.63;;;;;;;;;;5014016;28;20418;-80
2024/04/01 11:49:05;;;;;;;25.60;20.43;;;;;;;;;;5014345;28;20770;-79
2024/04/01 11:51:32;;;;;;;21.87;17.80;;;;;;;;;;5014333;28;20410;-87
2024/04/01 11:53:58;;;;;;;22.67;19.47;;;;;;;;;;5014420;28;20410;-82
2024/04/01 11:56:39;;;;;;;20.27;17.60;;;;;;;;;;5013919;28;20950;-79
2024/04/01 11:59:06;;;;;;;23.30;18.80;;;;;;;;;;5013907;28;20453;-78
2024/04/01 12:01:34;;;;;;;23.27;18.37;;;;;;;;;;5013661;28;20422;-79
2024/04/01 12:04:00;;;;;;;20.50;17.50;;;;;;;;;;5012547;28;20852;-79
2024/04/01 12:06:29;;;;;;;24.50;18.27;;;;;;;;;;4994034;28;20497;-78
2024/04/01 12:08:55;;;;;;;21.40;18.77;;;;;;;;;;4994078;28;20885;-79
2024/04/01 12:11:22;;;;;;;22.53;18.57;;;;;;;;;;4993953;28;20416;-79
2024/04/01 12:13:48;;;;;;;26.57;17.47;;;;;;;;;;4993638;28;20458;-79
2024/04/01 12:16:15;;;;;;;19.60;15.53;;;;;;;;;;4993660;28;20900;-77
2024/04/01 12:18:45;;;;;;;23.90;17.60;;;;;;;;;;4993902;28;20773;-79
2024/04/01 12:21:11;;;;;;;20.33;15.50;;;;;;;;;;4993865;28;20474;-78
2024/04/01 12:23:38;;;;;;;25.20;15.13;;;;;;;;;;4993924;28;20561;-78
2024/04/01 12:26:11;;;;;;;18.37;14.97;;;;;;;;;;4993884;28;20406;-78
2024/04/01 12:28:37;;;;;;;20.83;16.10;;;;;;;;;;5008931;28;20440;-80
2024/04/01 12:31:04;;;;;;;22.97;17.10;;;;;;;;;;4993486;28;20451;-80
2024/04/01 12:33:31;;;;;;;19.03;16.37;;;;;;;;;;4993791;28;20426;-79
2024/04/01 12:35:57;;;;;;;18.83;16.00;;;;;;;;;;5008760;28;20461;-78
2024/04/01 12:38:23;;;;;;;22.83;16.53;;;;;;;;;;5008661;28;20423;-79
2024/04/01 12:40:53;;;;;;;22.30;14.90;;;;;;;;;;4992488;28;20512;-79
2024/04/01 12:43:26;;;;;;;24.27;17.77;;;;;;;;;;5008773;28;20423;-79
2024/04/01 12:45:52;;;;;;;26.20;17.30;;;;;;;;;;4993351;28;20427;-78
2024/04/01 12:48:19;;;;;;;22.20;16.73;;;;;;;;;;5008664;28;20419;-78
2024/04/01 12:50:46;;;;;;;26.40;17.23;;;;;;;;;;5008661;28;20424;-79
2024/04/01 12:53:15;;;;;;;20.97;15.13;;;;;;;;;;4993557;28;20427;-79
2024/04/01 12:55:43;;;;;;;20.53;16.40;;;;;;;;;;4993632;28;20423;-78
2024/04/01 12:58:18;;;;;;;24.17;16.80;;;;;;;;;;4993538;28;20411;-78
2024/04/01 13:00:48;;;;;;;18.37;15.37;;;;;;;;;;4993067;28;20592;-78
2024/04/01 13:03:38;;;;;;;20.53;16.53;;;;;;;;;;4993409;28;20445;-78
2024/04/01 13:06:06;;;;;;;17.30;15.00;;;;;;;;;;4993550;28;20418;-78
2024/04/01 13:08:47;;;;;;;30.87;25.53;;;;;;;;;;4993426;28;20407;-78
2024/04/01 13:11:22;;;;;;;39.23;30.10;;;;;;;;;;4993441;28;20411;-78
2024/04/01 13:14:10;;;;;;;28.13;21.30;;;;;;;;;;5008304;28;20470;-78
2024/04/01 13:16:39;;;;;;;33.67;23.20;;;;;;;;;;4993038;28;20918;-79
2024/04/01 13:19:17;;;;;;;32.90;23.00;;;;;;;;;;4993327;28;20423;-78
2024/04/01 13:21:59;;;;;;;23.27;18.70;;;;;;;;;;4993273;28;20489;-78
2024/04/01 13:24:28;;;;;;;22.90;17.80;;;;;;;;;;5008375;28;20429;-78
2024/04/01 13:27:00;;;;;;;24.40;18.23;;;;;;;;;;4994821;28;20429;-78
2024/04/01 13:30:02;;;;;;;25.53;17.17;;;;;;;;;;4997011;28;20417;-78
2024/04/01 13:32:40;;;;;;;28.07;17.87;;;;;;;;;;4974919;28;20926;-78
2024/04/01 13:35:12;;;;;;;23.07;19.07;;;;;;;;;;4994319;28;20425;-81
2024/04/01 13:37:41;;;;;;;24.00;17.27;;;;;;;;;;4996754;28;20782;-79
2024/04/01 13:40:18;;;;;;;28.00;18.97;;;;;;;;;;4996673;28;20472;-78
2024/04/01 13:42:44;;;;;;;24.43;17.60;;;;;;;;;;4996762;28;20408;-77
2024/04/01 13:45:09;;;;;;;23.60;19.10;;;;;;;;;;4996285;28;20936;-78
2024/04/01 13:47:45;;;;;;;19.77;17.60;;;;;;;;;;4996573;28;20220;-78
2024/04/01 13:50:18;;;;;;;26.23;18.60;;;;;;;;;;4996523;28;20178;-80
2024/04/01 13:52:44;;;;;;;25.00;19.40;;;;;;;;;;4996479;28;20418;-78
2024/04/01 13:55:10;;;;;;;29.93;21.77;;;;;;;;;;4996477;28;20400;-78
2024/04/01 13:57:48;;;;;;;27.80;20.53;;;;;;;;;;4996457;28;20773;-78
2024/04/01 14:00:26;;;;;;;27.10;21.23;;;;;;;;;;5010931;28;20477;-78
2024/04/01 14:02:55;;;;;;;32.30;23.80;;;;;;;;;;4996491;28;20447;-79
2024/04/01 14:05:41;;;;;;;24.07;21.03;;;;;;;;;;4996248;28;20413;-78
2024/04/01 14:08:13;;;;;;;25.43;20.43;;;;;;;;;;4996277;28;20406;-78
2024/04/01 14:10:51;;;;;;;28.20;21.47;;;;;;;;;;4996250;28;20765;-78
2024/04/01 14:13:36;;;;;;;31.83;22.80;;;;;;;;;;5011366;28;20432;-80
2024/04/01 14:16:17;;;;;;;31.10;23.00;;;;;;;;;;4995882;28;20432;-78
2024/04/01 14:18:49;;;;;;;27.73;22.73;;;;;;;;;;4996022;28;20425;-78
2024/04/01 14:21:15;;;;;;;28.30;20.50;;;;;;;;;;4995867;28;20475;-79
2024/04/01 14:23:41;;;;;;;24.27;20.47;;;;;;;;;;4995862;28;20500;-78